Latest Weather Observations for Hobart Airport

IDT60801

Issued at 1:31 pm EDT Wednesday 10 February 2016 (issued every 30 minutes, with the page automatically refreshed every 10 minutes)

About weather observations | Map of weather stations | Latest weather observations for TAS | Other Formats
Station Details ID: 094008 Name: HOBART AIRPORT Lat: -42.83 Lon: 147.50 Height: 4.0 m
Data from the previous 72 hours. | See also: Recent months at Hobart Airport
Date/Time
EDT
Temp
°C
App
Temp
°C
Dew
Point
Rel
Hum
%
Delta-T
°C
Wind Press
QNH
hPa
Press
MSL
hPa
Rain
since 9 am
mm
Dir
 
Spd
km/h
Gust
km/h
Spd
kts
Gust
kts
10/01:00pm 22.2 19.7 8.4 41 7.3 WSW 11 22 6 12 1012.0 1011.9 0.0
10/12:30pm 21.8 18.9 8.1 41 7.2 NW 13 20 7 11 1012.3 1012.2 0.0
10/12:00pm 21.2 18.4 6.9 39 7.3 W 11 17 6 9 1012.7 1012.6 0.0
10/11:30am 20.6 18.3 7.3 42 6.8 WNW 9 13 5 7 1013.0 1012.9 0.0
10/11:00am 20.5 18.0 8.0 44 6.5 NW 11 15 6 8 1013.3 1013.2 0.0
10/10:30am 19.6 16.7 8.2 47 5.9 NW 13 20 7 11 1013.3 1013.2 0.0
10/10:00am 19.2 16.3 8.2 49 5.7 NNW 13 19 7 10 1013.6 1013.5 0.0
10/09:30am 18.7 16.3 10.1 57 4.6 NNW 13 19 7 10 1013.6 1013.5 0.0
10/09:00am 17.4 14.2 10.0 62 3.9 NNW 17 20 9 11 1013.9 1013.8 0.0
10/08:30am 16.4 14.6 12.2 76 2.3 NW 13 17 7 9 1013.9 1013.8 0.0
10/08:00am 16.0 14.8 12.9 82 1.7 NW 11 13 6 7 1013.8 1013.7 0.0
10/07:30am 15.7 15.1 12.4 81 1.8 NW 7 11 4 6 1013.5 1013.4 0.0
10/07:00am 14.8 15.0 13.0 89 1.0 WSW 4 11 2 6 1013.5 1013.4 0.0
10/06:30am 15.1 14.8 13.3 89 1.0 WNW 7 9 4 5 1013.4 1013.3 0.0
10/06:00am 14.7 15.5 12.7 88 1.1 CALM 0 0 0 0 1013.2 1013.1 0.0
10/05:50am 14.7 15.7 13.1 90 0.9 CALM 0 0 0 0 1013.2 1013.1 0.0
10/05:30am 14.0 14.7 12.3 89 0.9 CALM 0 0 0 0 1013.2 1013.1 0.0
10/05:00am 14.4 15.2 12.6 89 1.0 CALM 0 0 0 0 1013.1 1013.0 0.0
10/04:30am 14.4 13.9 12.8 90 0.9 WSW 7 11 4 6 1013.1 1013.0 0.0
10/04:00am 14.7 15.5 12.5 87 1.2 CALM 0 0 0 0 1013.0 1012.9 0.0
10/03:30am 15.2 15.0 13.0 87 1.2 SSW 6 7 3 4 1013.1 1013.0 0.0
10/03:00am 15.1 14.8 12.7 85 1.3 WSW 6 7 3 4 1013.2 1013.1 0.0
10/02:30am 15.6 16.5 12.9 84 1.5 CALM 0 0 0 0 1013.5 1013.4 0.0
10/02:00am 15.7 15.2 12.8 83 1.6 NW 7 7 4 4 1013.9 1013.8 0.0
10/01:30am 15.8 15.4 12.9 83 1.6 NW 7 9 4 5 1014.2 1014.1 0.0
10/01:00am 16.5 16.3 13.1 80 1.9 WSW 6 9 3 5 1014.6 1014.5 0.0
10/12:30am 16.7 16.3 13.1 79 2.0 W 7 9 4 5 1014.7 1014.6 0.0
10/12:00am 16.9 16.5 13.1 78 2.1 WSW 7 9 4 5 1015.0 1014.9 0.0
 
Date/Time
EDT
Temp
°C
App
Temp
°C
Dew
Point
Rel
Hum
%
Delta-T
°C
Wind Press
QNH
hPa
Press
MSL
hPa
Rain
since 9 am
mm
Dir
 
Spd
km/h
Gust
km/h
Spd
kts
Gust
kts
09/11:30pm 17.5 16.4 13.2 76 2.4 SSW 11 13 6 7 1015.3 1015.2 0.0
09/11:00pm 17.5 16.0 13.2 76 2.4 SSW 13 15 7 8 1015.5 1015.5 0.0
09/10:30pm 17.5 15.8 13.6 78 2.2 S 15 20 8 11 1015.5 1015.5 0.0
09/10:00pm 17.9 15.5 13.7 76 2.4 S 19 28 10 15 1015.7 1015.7 0.0
09/09:30pm 17.7 14.7 13.6 77 2.3 S 22 30 12 16 1015.7 1015.7 0.0
09/09:00pm 17.8 14.4 13.8 77 2.3 S 24 33 13 18 1015.7 1015.7 0.0
09/08:30pm 18.1 13.3 14.1 77 2.3 S 32 39 17 21 1015.2 1015.1 0.0
09/08:00pm 18.8 14.0 13.9 73 2.8 S 32 41 17 22 1015.1 1015.0 0.0
09/07:30pm 19.6 15.5 13.9 69 3.3 S 28 37 15 20 1014.9 1014.8 0.0
09/07:00pm 21.2 17.2 14.2 64 4.1 S 28 35 15 19 1014.6 1014.5 0.0
09/06:30pm 23.7 20.7 12.7 50 6.3 SSE 20 28 11 15 1014.4 1014.3 0.0
09/06:00pm 23.5 20.2 10.9 45 7.0 SSE 19 26 10 14 1014.6 1014.5 0.0
09/05:30pm 23.5 20.2 12.9 51 6.1 SSE 22 28 12 15 1014.8 1014.7 0.0
09/05:00pm 24.1 19.8 13.2 50 6.3 SSE 28 32 15 17 1015.3 1015.2 0.0
09/04:30pm 24.0 19.3 13.1 50 6.3 SSE 30 35 16 19 1015.6 1015.6 0.0
09/04:00pm 23.4 18.3 13.0 52 6.0 SSE 32 37 17 20 1015.7 1015.7 0.0
09/03:30pm 23.8 19.4 12.9 50 6.3 SSE 28 35 15 19 1016.1 1016.1 0.0
09/03:00pm 23.2 17.6 11.4 47 6.6 SSE 32 39 17 21 1016.5 1016.5 0.0
09/02:30pm 23.8 18.6 11.5 46 6.9 SSE 30 37 16 20 1016.9 1016.9 0.0
09/02:00pm 24.0 18.5 10.4 42 7.5 SE 30 35 16 19 1017.2 1017.2 0.0
09/01:30pm 23.6 20.1 10.8 44 7.1 SE 20 30 11 16 1017.5 1017.5 0.0
09/01:00pm 23.5 19.4 10.2 43 7.3 SE 22 28 12 15 1017.9 1017.9 0.0
09/12:30pm 23.3 21.6 9.9 42 7.3 ESE 9 13 5 7 1018.6 1018.6 0.0
09/12:00pm 22.9 20.8 8.3 39 7.7 W 9 15 5 8 1019.3 1019.3 0.0
09/11:30am 22.1 19.4 7.4 38 7.6 WNW 11 17 6 9 1019.8 1019.8 0.0
09/11:00am 21.0 18.7 7.3 41 7.0 WNW 9 13 5 7 1020.3 1020.3 0.0
09/10:30am 21.1 18.8 7.5 41 7.0 NNW 9 17 5 9 1020.8 1020.8 0.0
09/10:00am 20.0 16.6 7.5 44 6.4 NNW 15 20 8 11 1021.1 1021.1 0.0
09/09:30am 19.5 16.1 7.8 46 6.0 NNW 15 22 8 12 1021.2 1021.2 0.0
09/09:00am 18.9 15.2 8.0 49 5.6 NNW 17 22 9 12 1021.4 1021.4 0.0
09/08:30am 17.4 14.6 8.6 56 4.5 NNW 13 19 7 10 1021.5 1021.5 0.0
09/08:00am 16.2 13.7 8.3 59 4.0 NNW 11 17 6 9 1021.4 1021.4 0.0
09/07:30am 15.3 13.3 8.8 65 3.3 N 9 15 5 8 1021.5 1021.5 0.0
09/07:00am 14.2 12.3 9.1 71 2.6 N 9 11 5 6 1021.4 1021.4 0.0
09/06:30am 13.4 9.9 8.8 74 2.3 NW 17 19 9 10 1021.3 1021.3 0.0
09/06:00am 13.8 11.4 8.8 72 2.5 NW 11 13 6 7 1021.0 1021.0 0.0
09/05:30am 14.3 12.1 9.2 71 2.6 NW 11 17 6 9 1020.8 1020.8 0.0
09/05:00am 15.0 12.1 8.2 64 3.4 NNW 13 17 7 9 1020.7 1020.7 0.0
09/04:30am 14.9 12.9 8.6 66 3.2 W 9 9 5 5 1020.6 1020.6 0.0
09/04:00am 14.1 13.4 8.5 69 2.8 N 2 6 1 3 1020.5 1020.5 0.0
09/03:30am 14.7 14.4 8.8 68 3.0 CALM 0 6 0 3 1020.5 1020.5 0.0
09/03:00am 16.3 14.1 8.0 58 4.2 W 9 11 5 6 1020.4 1020.4 0.0
09/02:30am 17.3 13.5 7.5 52 4.9 WNW 17 24 9 13 1020.5 1020.5 0.0
09/02:00am 17.5 13.4 7.8 53 4.9 WNW 19 24 10 13 1020.5 1020.5 0.0
09/01:30am 17.4 14.4 7.7 53 4.9 WNW 13 17 7 9 1020.8 1020.8 0.0
09/01:00am 17.3 14.7 7.8 53 4.8 W 11 13 6 7 1021.0 1021.0 0.0
09/12:30am 17.7 13.9 7.6 51 5.1 WNW 17 20 9 11 1020.9 1020.9 0.0
09/12:00am 17.5 14.4 7.1 50 5.2 WNW 13 17 7 9 1021.0 1021.0 0.0
 
Date/Time
EDT
Temp
°C
App
Temp
°C
Dew
Point
Rel
Hum
%
Delta-T
°C
Wind Press
QNH
hPa
Press
MSL
hPa
Rain
since 9 am
mm
Dir
 
Spd
km/h
Gust
km/h
Spd
kts
Gust
kts
08/11:30pm 17.7 14.2 7.1 50 5.3 WNW 15 19 8 10 1021.1 1021.1 0.0
08/11:00pm 18.3 15.0 6.3 45 5.9 WNW 13 19 7 10 1021.2 1021.2 0.0
08/10:30pm 17.9 15.4 6.6 47 5.6 NNW 9 11 5 6 1021.3 1021.3 0.0
08/10:00pm 18.8 16.0 6.8 45 6.0 SW 11 15 6 8 1021.2 1021.2 0.0
08/09:30pm 19.0 15.2 7.6 47 5.8 SW 17 22 9 12 1020.6 1020.6 0.0
08/09:00pm 19.6 14.1 7.4 45 6.2 SW 26 33 14 18 1019.9 1019.9 0.0
08/08:30pm 20.6 15.0 7.3 42 6.8 SW 26 35 14 19 1019.4 1019.4 0.0
08/08:00pm 22.5 16.6 5.8 34 8.4 WSW 26 33 14 18 1018.8 1018.8 0.0
08/07:30pm 24.1 19.3 5.5 30 9.4 WNW 20 30 11 16 1018.1 1018.1 0.0
08/07:00pm 24.3 21.5 7.0 33 9.0 E 11 20 6 11 1017.8 1017.8 0.0
08/06:30pm 23.2 19.2 10.5 44 7.0 SSE 22 32 12 17 1017.4 1017.4 0.0
08/06:00pm 22.7 19.3 11.2 48 6.4 SE 20 30 11 16 1017.4 1017.4 0.0
08/05:30pm 23.9 21.0 12.3 48 6.6 ESE 19 26 10 14 1017.2 1017.2 0.0
08/05:00pm 23.3 19.0 12.0 49 6.4 SE 26 33 14 18 1017.3 1017.3 0.0
08/04:30pm 23.3 18.6 13.3 53 5.8 SSE 30 35 16 19 1017.2 1017.2 0.0
08/04:00pm 23.7 19.3 11.6 46 6.8 SSE 26 30 14 16 1017.2 1017.2 0.0
08/03:30pm 22.9 18.2 12.1 50 6.1 SSE 28 32 15 17 1017.2 1017.2 0.0
08/03:00pm 23.3 18.2 11.8 48 6.5 SSE 30 35 16 19 1017.3 1017.3 0.0
08/02:30pm 24.1 19.6 12.6 48 6.6 SE 28 35 15 19 1017.3 1017.3 0.0
08/02:00pm 25.5 22.0 8.9 35 9.0 SSE 17 26 9 14 1017.4 1017.4 0.0
08/01:30pm 24.2 21.0 8.5 36 8.4 ESE 15 20 8 11 1017.5 1017.5 0.0
08/01:00pm 24.3 21.9 9.9 40 7.9 SE 13 20 7 11 1017.6 1017.6 0.0
08/12:30pm 24.1 21.5 10.6 42 7.5 E 15 26 8 14 1017.6 1017.6 0.0
08/12:00pm 24.0 20.9 10.2 41 7.6 SE 17 28 9 15 1017.9 1017.9 0.0
08/11:30am 22.9 20.3 10.8 46 6.7 SE 15 24 8 13 1018.0 1018.0 0.0
08/11:00am 22.9 20.0 8.3 39 7.7 S 13 19 7 10 1018.3 1018.3 0.0
08/10:30am 22.6 19.1 8.7 41 7.4 WNW 17 26 9 14 1018.2 1018.2 0.0
08/10:00am 22.6 19.1 8.9 41 7.3 WNW 17 26 9 14 1018.2 1018.2 0.0
08/09:30am 21.1 18.3 8.5 44 6.6 WSW 13 37 7 20 1018.7 1018.7 0.0
08/09:00am 20.4 20.3 12.0 58 4.7 SSE 4 9 2 5 1018.6 1018.6 0.0
08/08:30am 19.9 20.1 14.2 69 3.3 SW 6 11 3 6 1018.5 1018.5 0.0
08/08:00am 19.3 18.3 14.7 74 2.7 NW 13 17 7 9 1018.2 1018.2 0.0
08/07:30am 18.0 17.8 15.6 86 1.4 WNW 11 13 6 7 1018.0 1018.0 0.0
08/07:00am 17.1 15.6 15.4 90 1.0 NW 17 19 9 10 1017.7 1017.7 0.0
08/06:30am 16.5 15.3 15.1 91 0.8 NW 15 17 8 9 1017.4 1017.4 0.0
08/06:00am 16.9 16.5 15.2 90 1.0 NW 11 13 6 7 1017.3 1017.3 0.0
08/05:30am 17.2 16.9 15.5 90 1.0 WNW 11 13 6 7 1017.2 1017.2 0.0
08/05:00am 17.5 17.2 15.4 87 1.2 NW 11 13 6 7 1017.0 1017.0 0.0
08/04:30am 17.7 19.4 15.3 86 1.4 CALM 0 0 0 0 1017.0 1017.0 0.0
08/04:00am 17.9 19.6 15.2 84 1.6 CALM 0 0 0 0 1017.0 1017.0 0.0
08/03:30am 17.6 19.2 15.0 85 1.5 CALM 0 0 0 0 1017.1 1017.1 0.0
08/03:00am 17.7 19.4 15.1 85 1.5 CALM 0 0 0 0 1017.3 1017.3 0.0
08/02:30am 17.7 19.2 14.6 82 1.8 CALM 0 0 0 0 1017.5 1017.5 0.0
08/02:00am 18.6 19.0 14.8 78 2.2 S 6 7 3 4 1017.7 1017.7 0.0
08/01:30am 18.6 18.6 15.2 80 2.0 SSW 9 11 5 6 1017.8 1017.8 0.0
08/01:00am 18.7 18.7 15.3 80 2.0 SSW 9 11 5 6 1018.1 1018.1 0.0
08/12:30am 18.8 18.6 15.6 82 1.9 SSW 11 13 6 7 1018.2 1018.2 0.0
08/12:00am 18.8 18.3 15.8 83 1.8 S 13 15 7 8 1018.1 1018.1 0.0
 
Date/Time
EDT
Temp
°C
App
Temp
°C
Dew
Point
Rel
Hum
%
Delta-T
°C
Wind Press
QNH
hPa
Press
MSL
hPa
Rain
since 9 am
mm
Dir
 
Spd
km/h
Gust
km/h
Spd
kts
Gust
kts
07/11:30pm 18.8 18.3 15.9 83 1.7 SSW 13 17 7 9 1018.2 1018.2 0.0
07/11:00pm 19.4 18.9 15.9 80 2.1 SE 13 17 7 9 1018.4 1018.4 0.0
07/10:30pm 19.6 18.7 15.9 79 2.2 SE 15 19 8 10 1018.5 1018.5 0.0
07/10:23pm 19.5 19.0 15.8 79 2.2 SE 13 17 7 9 1018.6 1018.6 0.0
07/10:00pm 19.6 18.6 15.7 78 2.3 SE 15 19 8 10 1018.5 1018.5 0.0
07/09:30pm 19.5 19.1 16.2 81 2.0 SE 13 17 7 9 1018.2 1018.2 0.0
07/09:00pm 19.6 19.6 16.3 81 2.0 SE 11 19 6 10 1017.9 1017.9 0.0
07/08:30pm 20.1 19.8 15.5 75 2.7 SE 11 17 6 9 1017.8 1017.8 0.0
07/08:00pm 20.1 19.2 15.9 77 2.5 SE 15 20 8 11 1017.5 1017.5 0.0
07/07:55pm 20.1 19.1 15.7 76 2.6 SE 15 20 8 11 1017.4 1017.4 0.0
07/07:30pm 20.4 19.9 15.9 75 2.7 SE 13 20 7 11 1017.1 1017.1 0.0
07/07:00pm 20.9 20.4 15.9 73 3.0 SE 13 24 7 13 1016.8 1016.8 0.0
07/06:30pm 21.4 17.9 14.4 64 4.1 S 26 32 14 17 1016.3 1016.3 0.0
07/06:00pm 21.7 18.1 14.2 62 4.4 S 26 32 14 17 1016.2 1016.2 0.0
07/05:30pm 21.2 18.5 14.7 66 3.8 SSE 22 30 12 16 1016.0 1016.0 0.0
07/05:00pm 22.6 19.5 14.6 60 4.7 SSE 24 30 13 16 1016.1 1016.1 0.0
07/04:30pm 23.1 21.0 14.6 58 5.0 SSE 19 24 10 13 1016.1 1016.1 0.0
07/04:00pm 22.7 20.3 14.4 59 4.9 SSE 20 26 11 14 1016.2 1016.2 0.0
07/03:30pm 22.1 19.3 14.2 61 4.6 SSE 22 30 12 16 1016.4 1016.4 0.0
07/03:00pm 22.6 19.1 14.6 60 4.7 SSE 26 32 14 17 1016.8 1016.8 0.0
07/02:30pm 23.2 20.7 14.2 57 5.3 SE 20 28 11 15 1017.0 1017.0 0.0
07/02:00pm 22.7 19.9 14.2 58 5.0 SSE 22 30 12 16 1017.2 1017.2 0.0

Other Formats:

Comma delimited format used in spreadsheet applications
http://www.bom.gov.au/fwo/IDT60801/IDT60801.94975.axf

JavaScript Object Notation format (JSON) in row-major order
http://www.bom.gov.au/fwo/IDT60801/IDT60801.94975.json